RJOY(METAR)
01/26 13:00
METAR RJOY 260400Z VRB02KT 9999 FEW025 SCT160 BKN/// 11/03 Q1023 RMK
1CU025 3AC160 A3022=
戻る
トップページへ戻る
IMOC Co,.Ltd.